Platzwetter Flugplatz Wels

Flugwetter Linz LOWL

[Quelle: ADDS]
METAR
LOWL 181920Z AUTO 24003KT 9999 FEW060 SCT070 14/11 Q1016 NOSIG =
LOWL 181715Z 1818/1918 30004KT 9999 SCT030 SCT070 TX19/1913Z TN10/1904Z BECMG 1818/1820 08003KT PROB30 TEMPO 1903/1907 0800 BCFG NSC TEMPO 1907/1917 10010KT
TAF
LOWL 181715Z 1818/1918 30004KT 9999 SCT030 SCT070 TX19/1913Z TN10/1904Z BECMG 1818/1820 08003KT PROB30 TEMPO 1903/1907 0800 BCFG NSC TEMPO 1907/1917 10010KT =

Flugwetter Salzburg LOWS

[Quelle: ADDS]
METAR
LOWS 181920Z 18004KT 9999 FEW070 13/10 Q1016 NOSIG =
LOWS 181715Z 1818/1918 15005KT CAVOK TX19/1913Z TN09/1904Z BECMG 1907/1909 03008KT TEMPO 1915/1918 21013KT -SHRA
TAF
LOWS 181715Z 1818/1918 15005KT CAVOK TX19/1913Z TN09/1904Z BECMG 1907/1909 03008KT TEMPO 1915/1918 21013KT -SHRA =

Wind - Verlauf

Windrichtung - Verlauf

Temperatur - Verlauf

Relative Luftfeuchtigkeit - Verlauf

Luftdruck - Verlauf

Wir benutzen Cookies

Wir nutzen Cookies auf unserer Website. Einige von ihnen sind essenziell für den Betrieb der Seite, während andere uns helfen, diese Website und die Nutzererfahrung zu verbessern (Tracking Cookies). Sie können selbst entscheiden, ob Sie die Cookies zulassen möchten. Bitte beachten Sie, dass bei einer Ablehnung womöglich nicht mehr alle Funktionalitäten der Seite zur Verfügung stehen.